Time;durP1;ratioP1;P1;durP2;ratioP2;P2;SDS_P1;SDS_P2;PMS_P1;PMS_P2;Temp;Humidity;BMP_temperature;BMP_pressure;BME280_temperature;BME280_humidity;BME280_pressure;Samples;Min_cycle;Max_cycle;Signal;HPM_P1;HPM_P2
2022/05/15 00:02:37;;;;;;;;;17.00;16.25;;;;;19.21;43.92;98997.41;6010776;28;97119;-68
2022/05/15 00:05:42;;;;;;;;;18.60;17.20;;;;;19.18;44.16;98998.78;6042879;28;96941;-69
2022/05/15 00:08:45;;;;;;;;;19.00;17.00;;;;;19.20;44.22;99001.25;6043103;28;96964;-68
2022/05/15 00:11:48;;;;;;;;;17.00;16.00;;;;;19.17;44.28;99001.78;6041377;28;97131;-67
2022/05/15 00:14:53;;;;;;;;;18.00;16.60;;;;;19.09;44.62;99003.16;6025803;28;96766;-68
2022/05/15 00:17:57;;;;;;;;;17.80;16.20;;;;;19.11;44.25;99002.91;6040964;28;97521;-69
2022/05/15 00:21:00;;;;;;;;;18.00;17.00;;;;;19.10;44.37;99010.28;6008758;28;98744;-69
2022/05/15 00:24:04;;;;;;;;;21.60;19.40;;;;;19.09;44.39;99007.81;6044042;28;99428;-69
2022/05/15 00:27:08;;;;;;;;;17.80;17.00;;;;;19.01;44.74;99011.91;6031798;28;97063;-69
2022/05/15 00:30:15;;;;;;;;;20.00;17.67;;;;;18.93;44.76;99009.72;6041154;28;97171;-68
2022/05/15 00:33:20;;;;;;;;;18.00;18.00;;;;;18.88;45.48;99015.19;6040295;28;97638;-69
2022/05/15 00:36:25;;;;;;;;;21.00;18.50;;;;;18.80;45.89;99004.81;6022838;28;97194;-69
2022/05/15 00:39:30;;;;;;;;;18.00;17.00;;;;;18.78;45.63;99005.06;6018119;29;97535;-68
2022/05/15 00:42:34;;;;;;;;;18.00;16.40;;;;;18.73;46.05;99005.06;6020603;28;97307;-68
2022/05/15 00:45:39;;;;;;;;;20.00;18.60;;;;;18.68;46.09;99002.31;6041832;28;97529;-67
2022/05/15 00:48:43;;;;;;;;;20.80;19.00;;;;;18.67;46.13;99005.34;6042126;28;97361;-68
2022/05/15 00:51:50;;;;;;;;;21.00;20.00;;;;;18.64;46.23;98998.50;6027353;28;97504;-68
2022/05/15 00:55:00;;;;;;;;;22.00;20.00;;;;;18.63;46.45;98987.84;6025579;28;97059;-67
2022/05/15 00:58:11;;;;;;;;;20.25;18.75;;;;;18.71;45.52;99000.97;6025089;28;96773;-68
2022/05/15 01:01:18;;;;;;;;;21.00;20.60;;;;;18.73;45.84;98996.88;6012364;28;97816;-67
2022/05/15 01:04:23;;;;;;;;;20.00;19.00;;;;;18.82;45.88;99000.69;6025693;28;96492;-69
2022/05/15 01:07:27;;;;;;;;;21.00;20.00;;;;;18.88;45.13;98998.78;6025440;28;96739;-69
2022/05/15 01:10:31;;;;;;;;;21.00;19.00;;;;;18.95;45.42;99013.00;6042443;28;96821;-67
2022/05/15 01:13:36;;;;;;;;;21.60;19.60;;;;;18.98;45.30;99004.25;6024867;28;97720;-68
2022/05/15 01:16:42;;;;;;;;;19.00;18.00;;;;;19.00;45.81;99004.81;6025122;28;97549;-68
2022/05/15 01:19:46;;;;;;;;;23.00;19.00;;;;;19.06;45.37;99009.16;6041768;28;97692;-67
2022/05/15 01:22:52;;;;;;;;;25.00;21.40;;;;;19.08;45.49;99007.00;6040587;28;97503;-70
2022/05/15 01:25:57;;;;;;;;;23.00;22.00;;;;;19.16;45.24;99002.88;6041148;28;97447;-69
2022/05/15 01:29:03;;;;;;;;;23.00;22.00;;;;;19.19;44.76;99003.16;6048855;28;96535;-70
2022/05/15 01:32:08;;;;;;;;;21.00;20.20;;;;;19.28;44.25;99004.25;6052213;28;97085;-67
2022/05/15 01:35:12;;;;;;;;;23.00;20.20;;;;;19.34;44.23;99003.16;6027942;28;96860;-70
2022/05/15 01:38:18;;;;;;;;;23.40;21.00;;;;;19.39;43.72;99016.81;6045083;28;96341;-68
2022/05/15 01:41:23;;;;;;;;;26.00;24.50;;;;;19.42;43.50;99001.75;6028071;28;96748;-70
2022/05/15 01:44:26;;;;;;;;;25.00;23.00;;;;;19.43;43.82;99009.69;6028888;28;96304;-70
2022/05/15 01:47:31;;;;;;;;;28.00;24.40;;;;;19.48;43.71;99011.63;6035549;28;96893;-68
2022/05/15 01:50:36;;;;;;;;;27.00;25.00;;;;;19.49;43.71;99005.06;6023802;28;97139;-70
2022/05/15 01:53:40;;;;;;;;;31.00;28.00;;;;;19.52;43.57;99003.69;6043566;28;98053;-69
2022/05/15 01:56:45;;;;;;;;;30.00;26.00;;;;;19.51;43.56;99002.84;6048564;28;96479;-70
2022/05/15 01:59:48;;;;;;;;;31.75;26.75;;;;;19.50;43.45;99003.16;6051335;28;97674;-70
2022/05/15 02:02:52;;;;;;;;;26.50;24.50;;;;;19.53;43.43;98999.84;6065354;28;97443;-70
2022/05/15 02:05:56;;;;;;;;;25.00;24.00;;;;;19.55;43.45;98997.69;6040409;28;97632;-70
2022/05/15 02:09:01;;;;;;;;;26.50;23.50;;;;;19.56;43.69;99002.84;6030939;28;99836;-69
2022/05/15 02:12:06;;;;;;;;;25.75;23.75;;;;;19.60;43.69;99000.38;6066902;28;97241;-70
2022/05/15 02:15:11;;;;;;;;;26.00;24.00;;;;;19.63;44.01;99002.56;6067307;28;96924;-69
2022/05/15 02:18:15;;;;;;;;;25.00;23.80;;;;;19.62;44.09;99009.94;6047560;28;97071;-68
2022/05/15 02:21:19;;;;;;;;;25.00;24.00;;;;;19.60;43.92;98998.47;6033218;28;97474;-68
2022/05/15 02:24:23;;;;;;;;;25.60;24.60;;;;;19.62;43.87;99015.41;6026240;28;98556;-68
2022/05/15 02:27:27;;;;;;;;;25.00;23.33;;;;;19.56;44.37;99010.22;6010504;28;97135;-69
2022/05/15 02:30:31;;;;;;;;;25.00;22.60;;;;;19.53;44.43;99005.31;6028901;28;97878;-70
2022/05/15 02:33:34;;;;;;;;;27.00;25.00;;;;;19.39;44.29;99008.59;6046781;28;97576;-69
2022/05/15 02:36:38;;;;;;;;;26.00;24.00;;;;;19.20;44.71;98988.41;6007768;28;97271;-70
2022/05/15 02:39:43;;;;;;;;;28.25;26.00;;;;;19.38;44.40;99015.16;6044007;28;97598;-68
2022/05/15 02:42:46;;;;;;;;;27.00;26.00;;;;;19.30;44.51;99012.19;6043594;28;96690;-68
2022/05/15 02:45:50;;;;;;;;;24.00;21.40;;;;;19.29;44.43;99014.09;6044060;28;97375;-68
2022/05/15 02:52:15;;;;;;;;;25.60;23.00;;;;;19.33;44.68;99019.81;6017344;28;97757;-68
2022/05/15 02:55:20;;;;;;;;;27.50;25.75;;;;;19.31;44.76;99022.81;6012069;28;96664;-67
2022/05/15 02:58:24;;;;;;;;;24.00;23.50;;;;;19.30;44.64;99026.63;6027197;28;98192;-69
2022/05/15 03:01:27;;;;;;;;;22.00;21.00;;;;;19.07;44.60;98996.31;6036157;28;97147;-69
2022/05/15 03:04:32;;;;;;;;;26.40;23.00;;;;;19.24;44.75;99018.75;6019818;29;96736;-68
2022/05/15 03:07:37;;;;;;;;;25.00;23.20;;;;;19.25;44.79;99028.59;6020109;28;96979;-69
2022/05/15 03:10:42;;;;;;;;;24.60;22.80;;;;;19.21;45.07;99030.19;6028199;28;97933;-67
2022/05/15 03:13:45;;;;;;;;;24.75;23.00;;;;;19.05;44.61;99004.81;6027472;28;97489;-69
2022/05/15 03:16:49;;;;;;;;;25.25;24.00;;;;;19.19;44.96;99027.75;6032445;28;98385;-69
2022/05/15 03:19:53;;;;;;;;;29.00;26.00;;;;;19.13;45.02;99031.59;6042692;28;97287;-68
2022/05/15 03:22:59;;;;;;;;;28.20;26.20;;;;;19.07;44.78;99027.19;6052224;28;97323;-68
2022/05/15 03:26:03;;;;;;;;;27.40;25.20;;;;;19.07;45.30;99032.66;6067864;28;97558;-69
2022/05/15 03:29:09;;;;;;;;;31.20;27.60;;;;;19.03;45.50;99029.69;6011510;28;98790;-69
2022/05/15 03:32:12;;;;;;;;;27.00;26.00;;;;;18.91;45.63;99001.78;6027606;28;97209;-68
2022/05/15 03:35:17;;;;;;;;;30.40;28.00;;;;;18.97;45.60;99036.22;6042568;28;97569;-68
2022/05/15 03:38:20;;;;;;;;;28.60;26.00;;;;;18.91;46.36;99040.03;6026266;28;97557;-67
2022/05/15 03:41:25;;;;;;;;;27.00;23.25;;;;;18.95;46.08;99038.41;6026988;28;98130;-69
2022/05/15 03:44:29;;;;;;;;;30.00;28.60;;;;;19.04;45.59;99044.97;6050416;28;97118;-69
2022/05/15 03:47:34;;;;;;;;;25.80;25.00;;;;;19.08;45.55;99042.50;6065817;28;96533;-67
2022/05/15 03:50:38;;;;;;;;;25.00;22.60;;;;;19.12;45.49;99040.03;6034961;28;97387;-69
2022/05/15 03:53:41;;;;;;;;;30.00;28.00;;;;;19.15;45.35;99042.25;6063646;28;97498;-69
2022/05/15 03:56:52;;;;;;;;;25.60;24.00;;;;;19.11;45.66;99044.69;6065821;28;96611;-67
2022/05/15 03:59:58;;;;;;;;;27.00;25.50;;;;;18.99;45.31;99031.31;6039372;28;97362;-68
2022/05/15 04:03:01;;;;;;;;;27.00;24.00;;;;;19.18;45.42;99052.63;6007546;28;97938;-67
2022/05/15 04:06:05;;;;;;;;;26.80;25.40;;;;;19.05;45.72;99048.53;6025639;28;97514;-69
2022/05/15 04:09:09;;;;;;;;;29.00;25.67;;;;;19.03;45.78;99043.34;6025848;28;97048;-71
2022/05/15 04:12:14;;;;;;;;;27.60;26.00;;;;;19.13;45.87;99049.91;6041615;28;97478;-68
2022/05/15 04:15:18;;;;;;;;;28.00;27.00;;;;;19.22;45.78;99053.72;6023792;28;96862;-68
2022/05/15 04:18:21;;;;;;;;;27.00;26.00;;;;;19.28;45.63;99049.91;6037943;28;97374;-69
2022/05/15 04:21:25;;;;;;;;;27.40;25.80;;;;;19.33;45.66;99058.09;6020877;28;97388;-67
2022/05/15 04:24:29;;;;;;;;;29.40;26.40;;;;;19.34;45.48;99065.19;6025169;28;96814;-67
2022/05/15 04:27:34;;;;;;;;;24.00;24.00;;;;;19.28;45.95;99069.03;6025785;28;96717;-71
2022/05/15 04:30:37;;;;;;;;;27.00;26.40;;;;;19.22;46.15;99067.38;6042333;28;96859;-69
2022/05/15 04:33:41;;;;;;;;;30.80;27.20;;;;;19.20;46.33;99066.84;6042885;28;97892;-70
2022/05/15 04:36:44;;;;;;;;;29.50;27.00;;;;;19.12;46.36;99078.31;6041564;28;96923;-71
2022/05/15 04:39:47;;;;;;;;;29.80;26.80;;;;;19.18;46.24;99067.13;6024479;28;98682;-70
2022/05/15 04:42:52;;;;;;;;;31.67;30.00;;;;;19.31;46.42;99074.75;6021001;28;97068;-67
2022/05/15 04:45:56;;;;;;;;;30.00;28.60;;;;;19.44;45.96;99076.16;6027424;28;96867;-69
2022/05/15 04:48:59;;;;;;;;;29.00;28.00;;;;;19.57;45.84;99077.50;6017304;29;97467;-68
2022/05/15 04:52:03;;;;;;;;;33.00;30.00;;;;;19.70;45.92;99076.94;6017368;29;96768;-67
2022/05/15 04:55:07;;;;;;;;;29.80;26.80;;;;;19.86;45.39;99079.38;6058185;28;99139;-70
2022/05/15 04:58:13;;;;;;;;;27.00;25.00;;;;;19.97;45.25;99079.34;6064503;28;98053;-68
2022/05/15 05:01:18;;;;;;;;;30.33;27.33;;;;;20.08;45.00;99083.69;6039443;28;97136;-68
2022/05/15 05:04:22;;;;;;;;;29.60;26.00;;;;;20.20;44.32;99089.66;6008895;28;98562;-69
2022/05/15 05:07:27;;;;;;;;;31.25;28.25;;;;;20.44;44.24;99089.88;6036485;28;96991;-68
2022/05/15 05:10:30;;;;;;;;;30.00;27.00;;;;;20.52;44.02;99095.59;6044404;28;96861;-67
2022/05/15 05:13:35;;;;;;;;;26.60;25.20;;;;;20.62;43.54;99098.25;6031787;28;97412;-70
2022/05/15 05:16:38;;;;;;;;;30.60;29.00;;;;;20.68;43.51;99099.88;6046200;28;96891;-67
2022/05/15 05:19:42;;;;;;;;;30.50;26.75;;;;;20.74;43.02;99086.97;6059836;28;96443;-69
2022/05/15 05:22:45;;;;;;;;;29.40;28.00;;;;;21.05;43.30;99101.31;6044072;28;98105;-69
2022/05/15 05:25:49;;;;;;;;;28.00;27.00;;;;;21.19;42.51;99105.09;6043746;28;97155;-70
2022/05/15 05:28:54;;;;;;;;;28.75;27.00;;;;;21.29;42.47;99101.44;6046407;28;96821;-68
2022/05/15 05:31:57;;;;;;;;;29.00;28.00;;;;;21.50;42.50;99109.19;6058416;28;97497;-70
2022/05/15 05:35:00;;;;;;;;;30.00;28.00;;;;;21.59;42.00;99110.25;6021966;28;96883;-70
2022/05/15 05:38:05;;;;;;;;;30.60;27.20;;;;;21.71;41.78;99109.03;6027078;28;98188;-69
2022/05/15 05:41:08;;;;;;;;;30.40;28.00;;;;;21.89;41.87;99105.56;6015227;28;98528;-70
2022/05/15 05:44:13;;;;;;;;;30.75;28.00;;;;;22.00;41.39;99113.41;6066708;28;97442;-70
2022/05/15 05:47:24;;;;;;;;;35.00;29.00;;;;;22.08;41.14;99103.75;6058789;28;96578;-70
2022/05/15 05:50:28;;;;;;;;;31.50;30.00;;;;;22.10;40.68;99120.72;6045281;28;97277;-68
2022/05/15 05:53:33;;;;;;;;;29.00;27.00;;;;;22.11;40.61;99113.31;6023557;28;98437;-69
2022/05/15 05:56:37;;;;;;;;;32.00;28.00;;;;;22.18;40.81;99122.84;6041842;28;97565;-69
2022/05/15 05:59:41;;;;;;;;;25.40;25.00;;;;;22.36;40.07;99124.84;6042297;28;97344;-70
2022/05/15 06:02:45;;;;;;;;;28.25;27.00;;;;;22.57;40.32;99121.84;6043133;28;96739;-70
2022/05/15 06:05:47;;;;;;;;;29.00;27.00;;;;;22.54;39.85;99127.91;6024412;28;99613;-70
2022/05/15 06:08:50;;;;;;;;;28.00;26.00;;;;;22.69;40.00;99127.72;6027395;28;99122;-68
2022/05/15 06:11:56;;;;;;;;;29.00;28.00;;;;;22.75;39.72;99123.81;6026236;28;97243;-69
2022/05/15 06:15:01;;;;;;;;;27.40;26.00;;;;;22.77;39.69;99132.59;6023244;28;98961;-68
2022/05/15 06:18:06;;;;;;;;;26.00;24.00;;;;;22.87;39.04;99132.47;6028265;28;96984;-70
2022/05/15 06:21:10;;;;;;;;;30.40;28.00;;;;;23.01;39.35;99133.38;6028014;28;97320;-68
2022/05/15 06:24:18;;;;;;;;;30.50;28.50;;;;;23.17;38.93;99132.00;6028287;28;98678;-68
2022/05/15 06:27:21;;;;;;;;;27.40;25.60;;;;;23.40;38.34;99129.47;6026964;28;98932;-68
2022/05/15 06:30:26;;;;;;;;;28.20;25.20;;;;;23.59;38.39;99128.34;6042904;28;100300;-70
2022/05/15 06:33:30;;;;;;;;;23.60;22.00;;;;;23.59;37.19;99133.03;6010568;28;97209;-69
2022/05/15 06:36:33;;;;;;;;;21.75;19.75;;;;;23.56;36.14;99139.94;6024266;28;97782;-68
2022/05/15 06:39:36;;;;;;;;;22.00;21.00;;;;;23.73;36.37;99139.41;6042069;28;97491;-68
2022/05/15 06:42:40;;;;;;;;;24.00;22.00;;;;;24.00;36.21;99133.13;6024225;28;96896;-68
2022/05/15 06:45:48;;;;;;;;;21.00;19.50;;;;;24.49;34.77;99137.97;6037881;28;97523;-69
2022/05/15 06:48:51;;;;;;;;;22.60;20.00;;;;;24.71;34.50;99153.81;6026838;28;97819;-67
2022/05/15 06:51:55;;;;;;;;;18.80;17.80;;;;;24.94;33.51;99152.78;6042773;28;98057;-68
2022/05/15 06:54:58;;;;;;;;;24.50;22.00;;;;;24.92;34.03;99152.28;6043915;28;97370;-68
2022/05/15 06:58:00;;;;;;;;;25.60;22.60;;;;;24.98;33.61;99148.28;6025919;28;98929;-69
2022/05/15 07:01:05;;;;;;;;;21.00;18.80;;;;;25.08;33.42;99150.81;6063602;28;97192;-68
2022/05/15 07:04:08;;;;;;;;;15.80;15.80;;;;;25.16;33.27;99149.28;6068849;28;97454;-70
2022/05/15 07:07:12;;;;;;;;;17.80;16.80;;;;;25.34;33.10;99151.03;6050945;28;98413;-68
2022/05/15 07:10:15;;;;;;;;;19.50;19.00;;;;;25.15;32.55;99125.56;6059464;28;97529;-68
2022/05/15 07:13:19;;;;;;;;;20.50;19.00;;;;;25.36;32.28;99144.06;6043388;28;97130;-69
2022/05/15 07:16:24;;;;;;;;;18.00;17.00;;;;;25.45;32.97;99146.91;6043543;28;96442;-68
2022/05/15 07:19:28;;;;;;;;;19.00;17.60;;;;;25.74;33.64;99150.09;6028700;28;97084;-70
2022/05/15 07:22:31;;;;;;;;;17.80;17.00;;;;;26.00;32.24;99146.66;6043111;28;97515;-68
2022/05/15 07:25:34;;;;;;;;;17.00;14.00;;;;;26.17;31.61;99143.97;6025731;28;98276;-69
2022/05/15 07:28:38;;;;;;;;;16.00;15.00;;;;;26.35;30.90;99147.66;6043523;28;97486;-70
2022/05/15 07:31:43;;;;;;;;;16.00;14.40;;;;;26.54;30.68;99148.22;6043875;28;98017;-70
2022/05/15 07:34:46;;;;;;;;;11.60;11.60;;;;;26.84;30.18;99152.88;6017206;28;96931;-67
2022/05/15 07:37:50;;;;;;;;;13.20;12.80;;;;;27.02;30.11;99151.00;6043354;28;97599;-68
2022/05/15 07:40:53;;;;;;;;;10.00;9.75;;;;;27.33;29.63;99159.97;6026504;28;97808;-67
2022/05/15 07:43:56;;;;;;;;;13.60;11.60;;;;;27.63;28.81;99149.06;6038315;28;99511;-70
2022/05/15 07:47:01;;;;;;;;;7.25;7.25;;;;;27.71;28.13;99153.81;6050344;28;97835;-69
2022/05/15 07:50:06;;;;;;;;;11.00;9.40;;;;;27.70;27.88;99149.41;6050213;28;97968;-68
2022/05/15 07:53:10;;;;;;;;;10.00;9.00;;;;;27.96;27.58;99153.72;6044360;28;96991;-69
2022/05/15 07:56:13;;;;;;;;;8.00;7.40;;;;;28.12;27.61;99156.81;6027727;28;98416;-68
2022/05/15 07:59:16;;;;;;;;;11.00;9.00;;;;;27.82;27.36;99155.06;6007092;29;97940;-68
2022/05/15 08:02:21;;;;;;;;;8.75;7.00;;;;;27.77;26.99;99150.50;6002829;29;97803;-66
2022/05/15 08:08:47;;;;;;;;;7.00;6.00;;;;;27.69;27.32;99156.06;6044863;28;97434;-68
2022/05/15 08:11:50;;;;;;;;;7.25;6.25;;;;;27.63;26.85;99151.84;6050879;28;97411;-69
2022/05/15 08:14:53;;;;;;;;;8.20;8.00;;;;;27.57;26.76;99163.09;6040028;28;96875;-68
2022/05/15 08:23:33;;;;;;;;;8.60;7.00;;;;;27.46;26.25;99158.19;6047423;28;97549;-70
2022/05/15 08:24:45;;;;;;;;;6.00;4.00;;;;;27.15;27.10;99153.59;6051717;28;96628;-67
2022/05/15 08:27:48;;;;;;;;;9.00;7.00;;;;;27.21;27.38;99156.22;6052217;28;99189;-66
2022/05/15 08:30:52;;;;;;;;;5.40;4.60;;;;;27.06;27.28;99154.75;6038628;28;97539;-70
2022/05/15 08:33:57;;;;;;;;;8.00;7.00;;;;;26.98;27.68;99156.34;6023987;28;98429;-69
2022/05/15 08:37:01;;;;;;;;;9.00;8.00;;;;;27.13;27.65;99157.81;6021524;28;96730;-71
2022/05/15 08:40:06;;;;;;;;;8.00;7.00;;;;;27.44;27.71;99161.28;6041981;28;97150;-66
2022/05/15 08:43:10;;;;;;;;;7.00;7.00;;;;;27.42;26.64;99162.72;6034729;28;96837;-67
2022/05/15 08:46:39;;;;;;;;;8.00;7.00;;;;;27.33;26.77;99157.19;6044954;28;97136;-66
2022/05/15 08:49:48;;;;;;;;;7.00;6.00;;;;;27.24;27.36;99161.09;6027428;28;96970;-66
2022/05/15 08:52:55;;;;;;;;;8.00;7.00;;;;;27.09;27.18;99156.84;6024289;28;99441;-69
2022/05/15 08:56:00;;;;;;;;;6.00;6.00;;;;;26.97;27.44;99163.03;6022188;28;98458;-66
2022/05/15 08:59:11;;;;;;;;;8.00;8.00;;;;;26.92;28.25;99162.38;6041241;28;97361;-67
2022/05/15 09:02:14;;;;;;;;;7.60;7.60;;;;;27.20;28.15;99169.25;6042254;28;96733;-67
2022/05/15 09:05:19;;;;;;;;;7.00;6.50;;;;;27.57;27.14;99168.63;6038791;28;97584;-66
2022/05/15 09:08:43;;;;;;;;;8.00;6.60;;;;;28.05;26.30;99153.72;6038871;28;96994;-69
2022/05/15 09:11:56;;;;;;;;;8.00;7.00;;;;;28.19;26.25;99154.38;6039219;28;96853;-68
2022/05/15 09:15:04;;;;;;;;;6.75;6.75;;;;;28.59;25.24;99162.38;6040005;28;96679;-69
2022/05/15 09:18:15;;;;;;;;;7.40;7.00;;;;;28.46;24.88;99168.94;6022728;28;97125;-67
2022/05/15 09:21:20;;;;;;;;;6.00;5.20;;;;;28.44;24.68;99158.19;6064770;28;96978;-66
2022/05/15 09:24:34;;;;;;;;;6.00;5.20;;;;;28.76;25.78;99163.09;6038460;28;96851;-66
2022/05/15 09:27:37;;;;;;;;;5.60;5.00;;;;;28.99;24.49;99165.56;6041231;28;98326;-67
2022/05/15 09:30:43;;;;;;;;;6.00;5.60;;;;;29.38;24.22;99167.13;6042756;28;96459;-70
2022/05/15 09:33:52;;;;;;;;;7.00;6.00;;;;;29.38;23.70;99169.91;6047198;28;96719;-68
2022/05/15 09:40:16;;;;;;;;;6.00;5.00;;;;;29.85;23.23;99167.69;6065424;28;97460;-69
2022/05/15 09:43:31;;;;;;;;;6.40;6.00;;;;;29.83;22.51;99170.81;6064291;28;97008;-67
2022/05/15 09:46:35;;;;;;;;;6.00;5.00;;;;;29.91;22.95;99171.94;6042467;28;97566;-66
2022/05/15 09:49:39;;;;;;;;;3.00;3.00;;;;;29.80;22.97;99165.13;6042453;28;97191;-70
2022/05/15 09:52:44;;;;;;;;;5.40;5.00;;;;;29.57;23.06;99175.78;6044829;28;97567;-68
2022/05/15 09:55:58;;;;;;;;;6.00;5.00;;;;;29.42;22.75;99173.66;6049033;28;99636;-66
2022/05/15 09:59:10;;;;;;;;;6.00;5.00;;;;;29.20;22.07;99170.00;6069913;28;97498;-68
2022/05/15 10:02:23;;;;;;;;;6.00;5.00;;;;;29.40;23.01;99165.66;6036774;28;98162;-67
2022/05/15 10:05:28;;;;;;;;;7.33;5.00;;;;;29.51;22.53;99169.66;6049573;28;97753;-69
2022/05/15 10:08:33;;;;;;;;;7.00;6.00;;;;;29.66;22.04;99171.78;6029288;28;97012;-68
2022/05/15 10:11:40;;;;;;;;;6.50;6.00;;;;;29.70;22.88;99158.03;6045948;28;96562;-69
2022/05/15 10:14:47;;;;;;;;;7.40;7.00;;;;;29.70;22.88;99161.63;6057830;28;96589;-71
2022/05/15 10:17:56;;;;;;;;;7.00;6.80;;;;;29.21;23.00;99163.31;6069627;28;96404;-67
2022/05/15 10:21:03;;;;;;;;;6.40;6.00;;;;;28.93;23.47;99162.19;6069428;28;97827;-67
2022/05/15 10:24:13;;;;;;;;;6.00;6.00;;;;;29.06;23.16;99166.69;6045359;28;99808;-69
2022/05/15 10:27:23;;;;;;;;;5.00;5.00;;;;;29.38;23.34;99161.56;6045772;28;96537;-68
2022/05/15 10:30:33;;;;;;;;;6.00;5.50;;;;;29.60;21.51;99164.00;6030364;28;99543;-71
2022/05/15 10:33:39;;;;;;;;;8.00;6.00;;;;;29.75;21.72;99157.81;6028520;28;96877;-67
2022/05/15 10:37:01;;;;;;;;;5.25;5.25;;;;;29.83;21.08;99164.44;6045421;28;96489;-68
2022/05/15 10:40:25;;;;;;;;;5.00;4.60;;;;;29.96;21.68;99157.78;6045932;28;96844;-67
2022/05/15 10:43:44;;;;;;;;;6.00;5.00;;;;;29.84;21.33;99152.16;6021919;29;97150;-71
2022/05/15 10:46:51;;;;;;;;;6.00;5.00;;;;;29.64;21.70;99159.38;6021815;29;96550;-67
2022/05/15 10:50:18;;;;;;;;;6.00;4.60;;;;;29.77;22.00;99163.84;6054273;28;97473;-67
2022/05/15 10:57:29;;;;;;;;;4.00;4.00;;;;;30.29;21.08;99158.56;6045031;28;97139;-70
2022/05/15 11:00:45;;;;;;;;;6.75;6.00;;;;;30.17;20.63;99163.28;6026364;28;96440;-66
2022/05/15 11:03:59;;;;;;;;;6.00;5.20;;;;;30.01;20.65;99157.56;6020151;29;97444;-67
2022/05/15 11:07:09;;;;;;;;;5.60;5.60;;;;;30.28;21.27;99164.47;6026726;28;97966;-70
2022/05/15 11:10:20;;;;;;;;;7.00;6.40;;;;;30.59;20.85;99156.44;6043018;28;97231;-70
2022/05/15 11:13:34;;;;;;;;;6.00;6.00;;;;;30.67;21.16;99147.16;6044779;28;96872;-67
2022/05/15 11:16:59;;;;;;;;;13.25;13.25;;;;;30.85;21.03;99144.91;6040814;28;97509;-70
2022/05/15 11:20:09;;;;;;;;;5.00;5.00;;;;;30.96;21.16;99146.06;6018103;29;97070;-69
2022/05/15 11:23:17;;;;;;;;;6.00;5.00;;;;;31.04;20.49;99145.16;6021306;28;96885;-68
2022/05/15 11:26:27;;;;;;;;;6.40;5.00;;;;;31.21;21.00;99139.34;6021258;29;97446;-66
2022/05/15 11:29:39;;;;;;;;;6.00;6.00;;;;;31.23;19.61;99133.38;6035832;28;96967;-67
2022/05/15 11:32:59;;;;;;;;;6.00;5.00;;;;;31.08;20.11;99131.38;6027713;28;96841;-68
2022/05/15 11:36:12;;;;;;;;;6.00;6.00;;;;;30.74;20.19;99135.44;6001505;28;96823;-69
2022/05/15 11:39:26;;;;;;;;;5.50;4.00;;;;;30.39;21.46;99143.41;6043907;28;96753;-70
2022/05/15 11:42:30;;;;;;;;;4.00;4.00;;;;;30.17;21.70;99143.81;6044364;28;96545;-67
2022/05/15 11:45:49;;;;;;;;;5.00;5.00;;;;;30.34;21.21;99147.22;6027383;28;96281;-68
2022/05/15 11:48:56;;;;;;;;;4.00;4.00;;;;;30.54;21.24;99129.63;6020756;29;97037;-67
2022/05/15 11:52:16;;;;;;;;;4.00;4.00;;;;;30.97;19.85;99129.03;6038537;28;97498;-69
2022/05/15 11:55:56;;;;;;;;;3.40;3.40;;;;;31.25;19.55;99122.72;6046474;28;97433;-68
2022/05/15 11:59:03;;;;;;;;;5.00;4.50;;;;;31.18;19.50;99131.66;6034285;28;96956;-68
2022/05/15 12:02:51;;;;;;;;;5.20;4.00;;;;;30.83;19.61;99136.13;6038918;28;97481;-68
2022/05/15 12:06:04;;;;;;;;;4.40;4.00;;;;;30.63;20.31;99123.16;6040147;28;96570;-70
2022/05/15 12:09:29;;;;;;;;;6.00;6.00;;;;;30.95;20.69;99124.97;6054963;28;97676;-71
2022/05/15 12:12:52;;;;;;;;;4.00;3.00;;;;;30.97;19.25;99122.66;6042129;28;96554;-67
2022/05/15 12:16:15;;;;;;;;;3.20;3.00;;;;;30.74;19.48;99125.09;6029435;28;100068;-70
2022/05/15 12:19:25;;;;;;;;;5.00;4.00;;;;;30.79;19.52;99129.63;6041454;28;97599;-67
2022/05/15 12:22:37;;;;;;;;;3.33;3.33;;;;;30.71;19.76;99114.66;6041758;28;97624;-70
2022/05/15 12:25:52;;;;;;;;;4.25;4.25;;;;;30.91;19.76;99112.91;6038900;28;97600;-68
2022/05/15 12:29:04;;;;;;;;;4.00;4.00;;;;;31.11;20.64;99111.16;6036400;28;97445;-67
2022/05/15 12:32:10;;;;;;;;;4.00;4.00;;;;;31.18;19.10;99108.59;6030988;28;96656;-66
2022/05/15 12:35:21;;;;;;;;;5.00;3.20;;;;;31.14;18.26;99093.72;6024256;28;96660;-68
2022/05/15 12:38:27;;;;;;;;;5.00;5.00;;;;;31.38;18.51;99104.78;6036658;28;96645;-67
2022/05/15 12:41:36;;;;;;;;;4.00;4.00;;;;;31.48;18.52;99101.50;6030073;28;97792;-65
2022/05/15 12:44:40;;;;;;;;;5.00;4.00;;;;;31.56;18.59;99102.53;6025033;28;97208;-66
2022/05/15 12:47:43;;;;;;;;;3.20;3.00;;;;;31.24;18.67;99096.84;6041356;28;97483;-67
2022/05/15 12:51:02;;;;;;;;;4.00;3.50;;;;;30.95;19.02;99089.56;6041192;28;97173;-67
2022/05/15 12:54:21;;;;;;;;;5.00;4.00;;;;;30.55;19.52;99091.47;6022645;28;96918;-67
2022/05/15 12:57:25;;;;;;;;;4.00;3.00;;;;;30.59;19.27;99084.09;6040952;28;98025;-69
2022/05/15 13:00:30;;;;;;;;;3.00;3.00;;;;;30.39;18.89;99093.31;6020513;28;97696;-70
2022/05/15 13:03:35;;;;;;;;;2.20;2.20;;;;;30.40;19.16;99083.81;6025000;28;98100;-72
2022/05/15 13:06:49;;;;;;;;;3.00;3.00;;;;;30.39;19.31;99080.22;6032076;28;97547;-67
2022/05/15 13:10:01;;;;;;;;;3.60;3.00;;;;;30.57;19.37;99078.03;6043252;28;97152;-67
2022/05/15 13:13:15;;;;;;;;;3.00;2.75;;;;;30.39;18.51;99082.19;6041931;28;97115;-67
2022/05/15 13:16:22;;;;;;;;;3.00;3.00;;;;;30.41;18.99;99082.66;6040586;28;98000;-66
2022/05/15 13:19:29;;;;;;;;;5.00;4.00;;;;;30.50;19.07;99064.69;6029077;28;96940;-66
2022/05/15 13:22:35;;;;;;;;;4.00;4.00;;;;;29.90;19.40;99064.66;6040529;28;97022;-68
2022/05/15 13:25:40;;;;;;;;;3.00;3.00;;;;;30.02;19.80;99073.00;6045990;28;96609;-67
2022/05/15 13:28:44;;;;;;;;;3.00;3.00;;;;;29.95;19.90;99072.78;6022225;28;97229;-66
2022/05/15 13:31:50;;;;;;;;;4.00;3.00;;;;;29.83;19.93;99070.75;6041543;28;97419;-67
2022/05/15 13:34:53;;;;;;;;;4.60;3.60;;;;;29.78;20.16;99068.19;6031321;28;97801;-68
2022/05/15 13:37:58;;;;;;;;;3.80;3.00;;;;;29.77;20.07;99086.00;6041490;28;97489;-67
2022/05/15 13:44:32;;;;;;;;;4.60;4.00;;;;;29.38;20.33;99073.50;6041050;28;96889;-68
2022/05/15 13:47:35;;;;;;;;;4.00;4.00;;;;;29.09;21.12;99059.69;6047396;28;96548;-68
2022/05/15 13:50:42;;;;;;;;;4.00;4.00;;;;;29.36;20.93;99064.72;6042139;28;98083;-68
2022/05/15 13:54:06;;;;;;;;;2.25;2.25;;;;;29.44;20.57;99068.56;6030104;28;97777;-68
2022/05/15 13:57:09;;;;;;;;;5.00;4.00;;;;;29.48;20.34;99066.72;6043316;28;97553;-69
2022/05/15 14:00:14;;;;;;;;;4.00;3.25;;;;;29.29;20.74;99056.09;6026138;28;98859;-68
2022/05/15 14:03:29;;;;;;;;;3.00;3.00;;;;;29.09;20.50;99057.72;6044987;28;96391;-69
2022/05/15 14:06:44;;;;;;;;;2.00;2.00;;;;;29.09;20.34;99056.91;6040836;28;97116;-67
2022/05/15 14:09:51;;;;;;;;;3.40;3.00;;;;;29.13;20.13;99058.66;6025599;28;97461;-66
2022/05/15 14:13:02;;;;;;;;;3.00;3.00;;;;;29.29;19.56;99045.78;6029161;28;98736;-64
2022/05/15 14:16:16;;;;;;;;;8.00;7.00;;;;;29.54;20.12;99045.91;6050277;28;97607;-65
2022/05/15 14:19:20;;;;;;;;;5.00;4.00;;;;;29.65;19.77;99047.09;6047078;28;96675;-67
2022/05/15 14:22:24;;;;;;;;;3.00;3.00;;;;;29.49;20.11;99023.88;6042767;28;97062;-64
2022/05/15 14:25:30;;;;;;;;;3.00;2.25;;;;;29.69;19.55;99046.06;6025606;28;98413;-67
2022/05/15 14:28:34;;;;;;;;;3.00;3.00;;;;;29.23;20.34;99026.88;6025960;28;97185;-65
2022/05/15 14:31:40;;;;;;;;;3.60;3.60;;;;;29.20;20.01;99036.72;6037989;28;97439;-67
2022/05/15 14:34:44;;;;;;;;;4.00;4.00;;;;;29.17;20.20;99036.59;6054261;28;97443;-65
2022/05/15 14:37:47;;;;;;;;;3.00;3.00;;;;;29.25;20.41;99038.47;6031424;28;96579;-66
2022/05/15 14:40:52;;;;;;;;;4.60;3.60;;;;;29.30;20.60;99038.28;6046068;28;96695;-67
2022/05/15 14:43:55;;;;;;;;;4.00;4.00;;;;;29.33;19.93;99034.84;6042568;28;96718;-69
2022/05/15 14:47:06;;;;;;;;;3.40;2.00;;;;;29.16;19.97;99034.97;6043098;28;97845;-67
2022/05/15 14:50:10;;;;;;;;;3.00;3.00;;;;;29.15;20.38;99033.34;6027290;28;97806;-65